Terminal Aerodrome Forecast
Issued by NWS Lake Charles, LA

Home | Current Version | Previous Version | Text Only | Print | Product List | Glossary On
Versions: 1 2 3 4 5 6 7 8 9 10 11 12 13 14 15 16
000
FTUS44 KLCH 252300
TAFAEX
TAF
KAEX 252328Z 2600/2624 VRB03KT P6SM FEW200
      TEMPO 2610/2613 3SM BR
     FM261800 20005KT P6SM SCT045=

USA.gov is the U.S. government's official web portal to all federal, state and local government web resources and services.